sensor_id;sensor_type;location;lat;lon;timestamp;P1;durP1;ratioP1;P2;durP2;ratioP2
3257;SDS011;1641;51.306;12.384;2023-07-09T00:01:51;5.07;;;4.60;;
3257;SDS011;1641;51.306;12.384;2023-07-09T00:04:17;4.57;;;3.85;;
3257;SDS011;1641;51.306;12.384;2023-07-09T00:06:43;5.13;;;4.13;;
3257;SDS011;1641;51.306;12.384;2023-07-09T00:09:13;6.55;;;4.68;;
3257;SDS011;1641;51.306;12.384;2023-07-09T00:11:41;6.75;;;5.32;;
3257;SDS011;1641;51.306;12.384;2023-07-09T00:14:07;5.82;;;4.40;;
3257;SDS011;1641;51.306;12.384;2023-07-09T00:16:33;5.45;;;4.07;;
3257;SDS011;1641;51.306;12.384;2023-07-09T00:18:59;4.27;;;3.87;;
3257;SDS011;1641;51.306;12.384;2023-07-09T00:21:24;8.40;;;4.70;;
3257;SDS011;1641;51.306;12.384;2023-07-09T00:23:49;6.83;;;5.20;;
3257;SDS011;1641;51.306;12.384;2023-07-09T00:26:15;6.93;;;4.47;;
3257;SDS011;1641;51.306;12.384;2023-07-09T00:28:42;6.47;;;4.40;;
3257;SDS011;1641;51.306;12.384;2023-07-09T00:31:15;6.82;;;4.90;;
3257;SDS011;1641;51.306;12.384;2023-07-09T00:33:41;6.40;;;4.50;;
3257;SDS011;1641;51.306;12.384;2023-07-09T00:36:18;6.40;;;4.57;;
3257;SDS011;1641;51.306;12.384;2023-07-09T00:38:48;7.20;;;4.50;;
3257;SDS011;1641;51.306;12.384;2023-07-09T00:41:15;6.63;;;4.72;;
3257;SDS011;1641;51.306;12.384;2023-07-09T00:43:42;5.43;;;4.75;;
3257;SDS011;1641;51.306;12.384;2023-07-09T00:48:59;7.65;;;4.78;;
3257;SDS011;1641;51.306;12.384;2023-07-09T00:51:30;7.10;;;4.90;;
3257;SDS011;1641;51.306;12.384;2023-07-09T00:54:01;7.50;;;4.75;;
3257;SDS011;1641;51.306;12.384;2023-07-09T00:56:34;7.40;;;4.35;;
3257;SDS011;1641;51.306;12.384;2023-07-09T00:59:04;5.05;;;4.22;;
3257;SDS011;1641;51.306;12.384;2023-07-09T01:01:32;6.55;;;4.70;;
3257;SDS011;1641;51.306;12.384;2023-07-09T01:03:59;5.45;;;4.80;;
3257;SDS011;1641;51.306;12.384;2023-07-09T01:06:30;5.40;;;4.80;;
3257;SDS011;1641;51.306;12.384;2023-07-09T01:09:00;7.53;;;4.60;;
3257;SDS011;1641;51.306;12.384;2023-07-09T01:11:28;6.63;;;5.13;;
3257;SDS011;1641;51.306;12.384;2023-07-09T01:13:55;6.32;;;5.35;;
3257;SDS011;1641;51.306;12.384;2023-07-09T01:16:24;6.70;;;4.93;;
3257;SDS011;1641;51.306;12.384;2023-07-09T01:18:52;6.25;;;4.80;;
3257;SDS011;1641;51.306;12.384;2023-07-09T01:21:18;7.00;;;5.00;;
3257;SDS011;1641;51.306;12.384;2023-07-09T01:23:43;6.35;;;4.55;;
3257;SDS011;1641;51.306;12.384;2023-07-09T01:26:11;8.80;;;4.93;;
3257;SDS011;1641;51.306;12.384;2023-07-09T01:28:37;5.93;;;5.05;;
3257;SDS011;1641;51.306;12.384;2023-07-09T01:31:06;5.45;;;4.85;;
3257;SDS011;1641;51.306;12.384;2023-07-09T01:33:32;5.60;;;4.85;;
3257;SDS011;1641;51.306;12.384;2023-07-09T01:35:58;7.20;;;4.68;;
3257;SDS011;1641;51.306;12.384;2023-07-09T01:38:25;6.40;;;5.03;;
3257;SDS011;1641;51.306;12.384;2023-07-09T01:40:55;7.03;;;4.57;;
3257;SDS011;1641;51.306;12.384;2023-07-09T01:43:21;8.13;;;4.95;;
3257;SDS011;1641;51.306;12.384;2023-07-09T01:45:46;6.00;;;4.80;;
3257;SDS011;1641;51.306;12.384;2023-07-09T01:48:14;7.43;;;5.30;;
3257;SDS011;1641;51.306;12.384;2023-07-09T01:50:40;7.40;;;4.90;;
3257;SDS011;1641;51.306;12.384;2023-07-09T01:53:08;5.68;;;5.00;;
3257;SDS011;1641;51.306;12.384;2023-07-09T01:55:34;6.50;;;5.30;;
3257;SDS011;1641;51.306;12.384;2023-07-09T01:57:59;6.13;;;5.03;;
3257;SDS011;1641;51.306;12.384;2023-07-09T02:00:25;7.30;;;4.63;;
3257;SDS011;1641;51.306;12.384;2023-07-09T02:02:50;5.15;;;4.65;;
3257;SDS011;1641;51.306;12.384;2023-07-09T02:05:17;6.18;;;4.68;;
3257;SDS011;1641;51.306;12.384;2023-07-09T02:07:44;6.70;;;4.40;;
3257;SDS011;1641;51.306;12.384;2023-07-09T02:10:11;8.73;;;5.63;;
3257;SDS011;1641;51.306;12.384;2023-07-09T02:12:36;11.07;;;5.53;;
3257;SDS011;1641;51.306;12.384;2023-07-09T02:15:02;11.65;;;5.70;;
3257;SDS011;1641;51.306;12.384;2023-07-09T02:17:27;6.43;;;5.63;;
3257;SDS011;1641;51.306;12.384;2023-07-09T02:19:52;7.18;;;5.07;;
3257;SDS011;1641;51.306;12.384;2023-07-09T02:22:18;5.57;;;5.07;;
3257;SDS011;1641;51.306;12.384;2023-07-09T02:24:44;8.20;;;4.65;;
3257;SDS011;1641;51.306;12.384;2023-07-09T02:27:10;9.27;;;6.00;;
3257;SDS011;1641;51.306;12.384;2023-07-09T02:29:35;6.32;;;5.35;;
3257;SDS011;1641;51.306;12.384;2023-07-09T02:32:02;11.30;;;5.32;;
3257;SDS011;1641;51.306;12.384;2023-07-09T02:34:28;8.75;;;5.32;;
3257;SDS011;1641;51.306;12.384;2023-07-09T02:36:55;13.20;;;5.15;;
3257;SDS011;1641;51.306;12.384;2023-07-09T02:39:21;7.82;;;4.90;;
3257;SDS011;1641;51.306;12.384;2023-07-09T02:41:46;8.07;;;5.60;;
3257;SDS011;1641;51.306;12.384;2023-07-09T02:44:12;8.20;;;5.78;;
3257;SDS011;1641;51.306;12.384;2023-07-09T02:46:38;5.70;;;5.10;;
3257;SDS011;1641;51.306;12.384;2023-07-09T02:49:04;6.80;;;5.80;;
3257;SDS011;1641;51.306;12.384;2023-07-09T02:51:30;10.50;;;5.68;;
3257;SDS011;1641;51.306;12.384;2023-07-09T02:53:56;7.50;;;5.40;;
3257;SDS011;1641;51.306;12.384;2023-07-09T02:56:22;12.07;;;5.75;;
3257;SDS011;1641;51.306;12.384;2023-07-09T02:58:49;10.02;;;5.50;;
3257;SDS011;1641;51.306;12.384;2023-07-09T03:01:15;6.50;;;5.45;;
3257;SDS011;1641;51.306;12.384;2023-07-09T03:03:41;9.63;;;6.18;;
3257;SDS011;1641;51.306;12.384;2023-07-09T03:06:06;7.40;;;6.05;;
3257;SDS011;1641;51.306;12.384;2023-07-09T03:08:32;11.45;;;6.18;;
3257;SDS011;1641;51.306;12.384;2023-07-09T03:10:57;6.93;;;5.72;;
3257;SDS011;1641;51.306;12.384;2023-07-09T03:13:22;6.28;;;5.18;;
3257;SDS011;1641;51.306;12.384;2023-07-09T03:15:54;7.20;;;5.45;;
3257;SDS011;1641;51.306;12.384;2023-07-09T03:18:20;9.25;;;5.78;;
3257;SDS011;1641;51.306;12.384;2023-07-09T03:20:46;5.97;;;5.28;;
3257;SDS011;1641;51.306;12.384;2023-07-09T03:23:11;9.80;;;6.00;;
3257;SDS011;1641;51.306;12.384;2023-07-09T03:25:40;14.00;;;5.33;;
3257;SDS011;1641;51.306;12.384;2023-07-09T03:28:06;8.52;;;5.60;;
3257;SDS011;1641;51.306;12.384;2023-07-09T03:30:31;8.43;;;5.70;;
3257;SDS011;1641;51.306;12.384;2023-07-09T03:32:56;5.80;;;5.15;;
3257;SDS011;1641;51.306;12.384;2023-07-09T03:35:21;6.50;;;5.73;;
3257;SDS011;1641;51.306;12.384;2023-07-09T03:37:47;9.45;;;6.82;;
3257;SDS011;1641;51.306;12.384;2023-07-09T03:40:19;7.47;;;5.30;;
3257;SDS011;1641;51.306;12.384;2023-07-09T03:42:46;7.03;;;5.70;;
3257;SDS011;1641;51.306;12.384;2023-07-09T03:45:11;8.65;;;5.35;;
3257;SDS011;1641;51.306;12.384;2023-07-09T03:47:37;8.82;;;5.78;;
3257;SDS011;1641;51.306;12.384;2023-07-09T03:50:02;9.32;;;5.88;;
3257;SDS011;1641;51.306;12.384;2023-07-09T03:52:27;7.00;;;5.65;;
3257;SDS011;1641;51.306;12.384;2023-07-09T03:54:53;6.45;;;5.50;;
3257;SDS011;1641;51.306;12.384;2023-07-09T03:57:18;10.07;;;5.40;;
3257;SDS011;1641;51.306;12.384;2023-07-09T03:59:43;12.60;;;6.47;;
3257;SDS011;1641;51.306;12.384;2023-07-09T04:02:08;7.18;;;5.78;;
3257;SDS011;1641;51.306;12.384;2023-07-09T04:04:33;7.05;;;5.30;;
3257;SDS011;1641;51.306;12.384;2023-07-09T04:06:59;8.05;;;5.78;;
3257;SDS011;1641;51.306;12.384;2023-07-09T04:09:24;6.78;;;5.20;;
3257;SDS011;1641;51.306;12.384;2023-07-09T04:11:49;7.88;;;5.03;;
3257;SDS011;1641;51.306;12.384;2023-07-09T04:14:14;9.38;;;5.75;;
3257;SDS011;1641;51.306;12.384;2023-07-09T04:16:40;8.45;;;6.25;;
3257;SDS011;1641;51.306;12.384;2023-07-09T04:19:05;7.37;;;5.67;;
3257;SDS011;1641;51.306;12.384;2023-07-09T04:21:30;9.27;;;5.63;;
3257;SDS011;1641;51.306;12.384;2023-07-09T04:23:55;10.03;;;6.17;;
3257;SDS011;1641;51.306;12.384;2023-07-09T04:26:21;10.50;;;6.03;;
3257;SDS011;1641;51.306;12.384;2023-07-09T04:28:48;5.68;;;5.10;;
3257;SDS011;1641;51.306;12.384;2023-07-09T04:31:14;11.05;;;6.30;;
3257;SDS011;1641;51.306;12.384;2023-07-09T04:33:39;8.23;;;5.95;;
3257;SDS011;1641;51.306;12.384;2023-07-09T04:36:04;11.23;;;6.07;;
3257;SDS011;1641;51.306;12.384;2023-07-09T04:38:31;7.25;;;5.07;;
3257;SDS011;1641;51.306;12.384;2023-07-09T04:40:56;10.30;;;6.30;;
3257;SDS011;1641;51.306;12.384;2023-07-09T04:43:22;6.93;;;5.78;;
3257;SDS011;1641;51.306;12.384;2023-07-09T04:45:47;10.00;;;6.40;;
3257;SDS011;1641;51.306;12.384;2023-07-09T04:48:13;9.48;;;6.05;;
3257;SDS011;1641;51.306;12.384;2023-07-09T04:50:38;8.43;;;4.88;;
3257;SDS011;1641;51.306;12.384;2023-07-09T04:53:05;6.05;;;5.22;;
3257;SDS011;1641;51.306;12.384;2023-07-09T04:55:30;6.45;;;5.00;;
3257;SDS011;1641;51.306;12.384;2023-07-09T04:57:56;7.10;;;4.90;;
3257;SDS011;1641;51.306;12.384;2023-07-09T05:00:21;7.28;;;4.95;;
3257;SDS011;1641;51.306;12.384;2023-07-09T05:02:47;7.05;;;5.18;;
3257;SDS011;1641;51.306;12.384;2023-07-09T05:05:12;8.07;;;5.18;;
3257;SDS011;1641;51.306;12.384;2023-07-09T05:07:38;7.65;;;5.00;;
3257;SDS011;1641;51.306;12.384;2023-07-09T05:10:05;6.28;;;5.47;;
3257;SDS011;1641;51.306;12.384;2023-07-09T05:12:31;10.18;;;5.30;;
3257;SDS011;1641;51.306;12.384;2023-07-09T05:14:56;13.52;;;5.60;;
3257;SDS011;1641;51.306;12.384;2023-07-09T05:17:27;5.70;;;5.10;;
3257;SDS011;1641;51.306;12.384;2023-07-09T05:19:53;5.80;;;5.20;;
3257;SDS011;1641;51.306;12.384;2023-07-09T05:22:24;5.47;;;4.82;;
3257;SDS011;1641;51.306;12.384;2023-07-09T05:24:49;7.68;;;5.45;;
3257;SDS011;1641;51.306;12.384;2023-07-09T05:27:14;11.32;;;5.88;;
3257;SDS011;1641;51.306;12.384;2023-07-09T05:29:42;5.60;;;4.95;;
3257;SDS011;1641;51.306;12.384;2023-07-09T05:32:08;10.38;;;5.00;;
3257;SDS011;1641;51.306;12.384;2023-07-09T05:34:33;6.95;;;5.30;;
3257;SDS011;1641;51.306;12.384;2023-07-09T05:36:58;5.73;;;4.53;;
3257;SDS011;1641;51.306;12.384;2023-07-09T05:39:23;6.32;;;5.10;;
3257;SDS011;1641;51.306;12.384;2023-07-09T05:41:49;5.10;;;4.60;;
3257;SDS011;1641;51.306;12.384;2023-07-09T05:44:14;6.63;;;5.20;;
3257;SDS011;1641;51.306;12.384;2023-07-09T05:46:40;5.82;;;5.22;;
3257;SDS011;1641;51.306;12.384;2023-07-09T05:49:05;8.88;;;5.70;;
3257;SDS011;1641;51.306;12.384;2023-07-09T05:51:31;9.20;;;5.00;;
3257;SDS011;1641;51.306;12.384;2023-07-09T05:53:56;6.60;;;4.80;;
3257;SDS011;1641;51.306;12.384;2023-07-09T05:56:22;8.20;;;4.80;;
3257;SDS011;1641;51.306;12.384;2023-07-09T05:59:05;8.23;;;5.25;;
3257;SDS011;1641;51.306;12.384;2023-07-09T06:01:31;5.60;;;4.20;;
3257;SDS011;1641;51.306;12.384;2023-07-09T06:04:00;11.20;;;4.35;;
3257;SDS011;1641;51.306;12.384;2023-07-09T06:06:28;5.47;;;4.75;;
3257;SDS011;1641;51.306;12.384;2023-07-09T06:08:53;7.18;;;4.95;;
3257;SDS011;1641;51.306;12.384;2023-07-09T06:11:18;7.55;;;4.88;;
3257;SDS011;1641;51.306;12.384;2023-07-09T06:13:44;6.22;;;5.00;;
3257;SDS011;1641;51.306;12.384;2023-07-09T06:16:13;5.22;;;4.75;;
3257;SDS011;1641;51.306;12.384;2023-07-09T06:18:39;6.20;;;5.13;;
3257;SDS011;1641;51.306;12.384;2023-07-09T06:21:04;5.83;;;4.90;;
3257;SDS011;1641;51.306;12.384;2023-07-09T06:23:29;7.72;;;4.90;;
3257;SDS011;1641;51.306;12.384;2023-07-09T06:25:55;6.00;;;5.40;;
3257;SDS011;1641;51.306;12.384;2023-07-09T06:28:21;7.50;;;5.10;;
3257;SDS011;1641;51.306;12.384;2023-07-09T06:30:49;9.32;;;4.75;;
3257;SDS011;1641;51.306;12.384;2023-07-09T06:33:15;6.03;;;4.93;;
3257;SDS011;1641;51.306;12.384;2023-07-09T06:35:49;7.68;;;4.90;;
3257;SDS011;1641;51.306;12.384;2023-07-09T06:38:16;6.38;;;4.53;;
3257;SDS011;1641;51.306;12.384;2023-07-09T06:40:57;5.25;;;4.75;;
3257;SDS011;1641;51.306;12.384;2023-07-09T06:43:23;4.53;;;4.13;;
3257;SDS011;1641;51.306;12.384;2023-07-09T06:45:52;6.68;;;4.65;;
3257;SDS011;1641;51.306;12.384;2023-07-09T06:50:48;6.53;;;4.53;;
3257;SDS011;1641;51.306;12.384;2023-07-09T06:53:14;5.85;;;4.97;;
3257;SDS011;1641;51.306;12.384;2023-07-09T06:55:40;4.90;;;4.40;;
3257;SDS011;1641;51.306;12.384;2023-07-09T06:58:05;5.00;;;4.57;;
3257;SDS011;1641;51.306;12.384;2023-07-09T07:00:31;5.22;;;4.57;;
3257;SDS011;1641;51.306;12.384;2023-07-09T07:02:56;6.40;;;4.03;;
3257;SDS011;1641;51.306;12.384;2023-07-09T07:05:21;4.77;;;4.37;;
3257;SDS011;1641;51.306;12.384;2023-07-09T07:07:47;7.28;;;4.57;;
3257;SDS011;1641;51.306;12.384;2023-07-09T07:10:15;7.10;;;5.00;;
3257;SDS011;1641;51.306;12.384;2023-07-09T07:12:44;5.10;;;4.60;;
3257;SDS011;1641;51.306;12.384;2023-07-09T07:15:12;4.60;;;4.10;;
3257;SDS011;1641;51.306;12.384;2023-07-09T07:17:39;5.28;;;4.50;;
3257;SDS011;1641;51.306;12.384;2023-07-09T07:20:05;6.13;;;5.47;;
3257;SDS011;1641;51.306;12.384;2023-07-09T07:22:31;4.65;;;4.18;;
3257;SDS011;1641;51.306;12.384;2023-07-09T07:24:56;5.97;;;4.28;;
3257;SDS011;1641;51.306;12.384;2023-07-09T07:27:24;5.37;;;4.87;;
3257;SDS011;1641;51.306;12.384;2023-07-09T07:29:55;5.43;;;4.63;;
3257;SDS011;1641;51.306;12.384;2023-07-09T07:32:21;5.90;;;4.80;;
3257;SDS011;1641;51.306;12.384;2023-07-09T07:34:47;5.72;;;4.80;;
3257;SDS011;1641;51.306;12.384;2023-07-09T07:37:13;4.90;;;4.15;;
3257;SDS011;1641;51.306;12.384;2023-07-09T07:39:41;11.13;;;5.57;;
3257;SDS011;1641;51.306;12.384;2023-07-09T07:42:07;5.35;;;4.82;;
3257;SDS011;1641;51.306;12.384;2023-07-09T07:44:32;6.35;;;4.65;;
3257;SDS011;1641;51.306;12.384;2023-07-09T07:46:58;4.65;;;4.18;;
3257;SDS011;1641;51.306;12.384;2023-07-09T07:49:26;6.13;;;4.60;;
3257;SDS011;1641;51.306;12.384;2023-07-09T07:51:51;7.43;;;4.38;;
3257;SDS011;1641;51.306;12.384;2023-07-09T07:54:17;4.70;;;3.90;;
3257;SDS011;1641;51.306;12.384;2023-07-09T07:56:49;4.72;;;4.15;;
3257;SDS011;1641;51.306;12.384;2023-07-09T07:59:14;4.47;;;3.90;;
3257;SDS011;1641;51.306;12.384;2023-07-09T08:01:44;9.25;;;4.60;;
3257;SDS011;1641;51.306;12.384;2023-07-09T08:04:13;5.03;;;4.40;;
3257;SDS011;1641;51.306;12.384;2023-07-09T08:06:38;5.53;;;5.03;;
3257;SDS011;1641;51.306;12.384;2023-07-09T08:09:03;9.93;;;4.57;;
3257;SDS011;1641;51.306;12.384;2023-07-09T08:11:28;9.25;;;5.55;;
3257;SDS011;1641;51.306;12.384;2023-07-09T08:13:56;4.45;;;4.05;;
3257;SDS011;1641;51.306;12.384;2023-07-09T08:16:21;6.05;;;4.70;;
3257;SDS011;1641;51.306;12.384;2023-07-09T08:18:46;4.75;;;4.30;;
3257;SDS011;1641;51.306;12.384;2023-07-09T08:21:18;4.07;;;3.67;;
3257;SDS011;1641;51.306;12.384;2023-07-09T08:23:44;5.28;;;4.32;;
3257;SDS011;1641;51.306;12.384;2023-07-09T08:26:10;4.43;;;4.10;;
3257;SDS011;1641;51.306;12.384;2023-07-09T08:28:35;8.02;;;3.92;;
3257;SDS011;1641;51.306;12.384;2023-07-09T08:31:03;4.63;;;4.23;;
3257;SDS011;1641;51.306;12.384;2023-07-09T08:33:38;3.72;;;3.42;;
3257;SDS011;1641;51.306;12.384;2023-07-09T08:36:05;9.30;;;4.97;;
3257;SDS011;1641;51.306;12.384;2023-07-09T08:38:33;4.35;;;3.85;;
3257;SDS011;1641;51.306;12.384;2023-07-09T08:43:39;3.80;;;3.42;;
3257;SDS011;1641;51.306;12.384;2023-07-09T08:46:20;7.07;;;3.47;;
3257;SDS011;1641;51.306;12.384;2023-07-09T08:49:18;8.60;;;3.63;;
3257;SDS011;1641;51.306;12.384;2023-07-09T08:51:49;6.53;;;3.67;;
3257;SDS011;1641;51.306;12.384;2023-07-09T08:54:26;4.32;;;3.90;;
3257;SDS011;1641;51.306;12.384;2023-07-09T08:56:54;5.47;;;3.70;;
3257;SDS011;1641;51.306;12.384;2023-07-09T08:59:22;4.70;;;3.30;;
3257;SDS011;1641;51.306;12.384;2023-07-09T09:01:52;3.80;;;3.40;;
3257;SDS011;1641;51.306;12.384;2023-07-09T09:04:29;3.80;;;3.50;;
3257;SDS011;1641;51.306;12.384;2023-07-09T09:07:14;5.72;;;4.40;;
3257;SDS011;1641;51.306;12.384;2023-07-09T09:09:57;5.35;;;4.30;;
3257;SDS011;1641;51.306;12.384;2023-07-09T09:12:36;4.43;;;3.42;;
3257;SDS011;1641;51.306;12.384;2023-07-09T09:15:17;6.10;;;3.65;;
3257;SDS011;1641;51.306;12.384;2023-07-09T09:17:50;4.03;;;3.67;;
3257;SDS011;1641;51.306;12.384;2023-07-09T09:20:24;4.55;;;3.97;;
3257;SDS011;1641;51.306;12.384;2023-07-09T09:28:04;5.03;;;3.50;;
3257;SDS011;1641;51.306;12.384;2023-07-09T09:30:30;4.63;;;3.90;;
3257;SDS011;1641;51.306;12.384;2023-07-09T09:32:57;4.03;;;3.20;;
3257;SDS011;1641;51.306;12.384;2023-07-09T09:37:58;4.68;;;3.42;;
3257;SDS011;1641;51.306;12.384;2023-07-09T09:40:25;4.68;;;3.65;;
3257;SDS011;1641;51.306;12.384;2023-07-09T09:42:54;4.47;;;3.58;;
3257;SDS011;1641;51.306;12.384;2023-07-09T09:45:27;3.50;;;3.20;;
3257;SDS011;1641;51.306;12.384;2023-07-09T09:47:58;5.82;;;3.22;;
3257;SDS011;1641;51.306;12.384;2023-07-09T09:50:25;4.65;;;3.35;;
3257;SDS011;1641;51.306;12.384;2023-07-09T09:52:55;8.63;;;3.50;;
3257;SDS011;1641;51.306;12.384;2023-07-09T09:55:22;4.97;;;3.50;;
3257;SDS011;1641;51.306;12.384;2023-07-09T09:57:53;4.53;;;3.85;;
3257;SDS011;1641;51.306;12.384;2023-07-09T10:00:21;4.72;;;3.28;;
3257;SDS011;1641;51.306;12.384;2023-07-09T10:02:48;4.88;;;3.80;;
3257;SDS011;1641;51.306;12.384;2023-07-09T10:05:19;5.30;;;3.20;;
3257;SDS011;1641;51.306;12.384;2023-07-09T10:08:03;5.82;;;3.67;;
3257;SDS011;1641;51.306;12.384;2023-07-09T10:10:40;4.05;;;3.58;;
3257;SDS011;1641;51.306;12.384;2023-07-09T10:16:15;4.55;;;3.15;;
3257;SDS011;1641;51.306;12.384;2023-07-09T10:19:12;3.38;;;3.08;;
3257;SDS011;1641;51.306;12.384;2023-07-09T10:21:46;4.35;;;3.60;;
3257;SDS011;1641;51.306;12.384;2023-07-09T10:24:24;5.32;;;3.25;;
3257;SDS011;1641;51.306;12.384;2023-07-09T10:33:09;4.38;;;3.55;;
3257;SDS011;1641;51.306;12.384;2023-07-09T10:35:58;3.63;;;3.33;;
3257;SDS011;1641;51.306;12.384;2023-07-09T10:38:48;4.22;;;3.83;;
3257;SDS011;1641;51.306;12.384;2023-07-09T10:41:21;8.57;;;3.60;;
3257;SDS011;1641;51.306;12.384;2023-07-09T10:44:04;7.85;;;3.70;;
3257;SDS011;1641;51.306;12.384;2023-07-09T10:46:47;3.80;;;3.40;;
3257;SDS011;1641;51.306;12.384;2023-07-09T10:49:18;5.35;;;3.75;;
3257;SDS011;1641;51.306;12.384;2023-07-09T10:51:50;5.50;;;3.15;;
3257;SDS011;1641;51.306;12.384;2023-07-09T10:57:03;5.57;;;3.90;;
3257;SDS011;1641;51.306;12.384;2023-07-09T10:59:37;6.55;;;3.50;;
3257;SDS011;1641;51.306;12.384;2023-07-09T11:04:52;7.03;;;4.20;;
3257;SDS011;1641;51.306;12.384;2023-07-09T11:07:26;5.90;;;3.70;;
3257;SDS011;1641;51.306;12.384;2023-07-09T11:10:09;5.80;;;4.10;;
3257;SDS011;1641;51.306;12.384;2023-07-09T11:12:51;7.72;;;3.88;;
3257;SDS011;1641;51.306;12.384;2023-07-09T11:15:46;4.03;;;3.38;;
3257;SDS011;1641;51.306;12.384;2023-07-09T11:18:21;10.25;;;5.38;;
3257;SDS011;1641;51.306;12.384;2023-07-09T11:20:55;5.78;;;3.97;;
3257;SDS011;1641;51.306;12.384;2023-07-09T11:23:25;7.70;;;4.43;;
3257;SDS011;1641;51.306;12.384;2023-07-09T11:26:02;4.03;;;3.63;;
3257;SDS011;1641;51.306;12.384;2023-07-09T11:28:48;5.70;;;4.38;;
3257;SDS011;1641;51.306;12.384;2023-07-09T11:31:21;5.30;;;4.00;;
3257;SDS011;1641;51.306;12.384;2023-07-09T11:33:56;6.53;;;4.93;;
3257;SDS011;1641;51.306;12.384;2023-07-09T11:36:33;5.05;;;3.70;;
3257;SDS011;1641;51.306;12.384;2023-07-09T11:38:59;5.18;;;3.72;;
3257;SDS011;1641;51.306;12.384;2023-07-09T11:44:05;7.57;;;3.97;;
3257;SDS011;1641;51.306;12.384;2023-07-09T11:46:37;8.95;;;4.60;;
3257;SDS011;1641;51.306;12.384;2023-07-09T11:49:10;5.72;;;4.22;;
3257;SDS011;1641;51.306;12.384;2023-07-09T11:51:41;5.22;;;3.97;;
3257;SDS011;1641;51.306;12.384;2023-07-09T11:54:13;5.50;;;3.90;;
3257;SDS011;1641;51.306;12.384;2023-07-09T11:56:39;6.07;;;3.85;;
3257;SDS011;1641;51.306;12.384;2023-07-09T11:59:05;4.53;;;3.95;;
3257;SDS011;1641;51.306;12.384;2023-07-09T12:01:34;9.18;;;4.15;;
3257;SDS011;1641;51.306;12.384;2023-07-09T12:04:07;5.68;;;4.47;;
3257;SDS011;1641;51.306;12.384;2023-07-09T12:06:38;5.10;;;4.13;;
3257;SDS011;1641;51.306;12.384;2023-07-09T12:09:04;4.97;;;4.47;;
3257;SDS011;1641;51.306;12.384;2023-07-09T12:11:31;5.03;;;4.15;;
3257;SDS011;1641;51.306;12.384;2023-07-09T12:14:02;6.10;;;3.63;;
3257;SDS011;1641;51.306;12.384;2023-07-09T12:16:38;6.05;;;4.45;;
3257;SDS011;1641;51.306;12.384;2023-07-09T12:19:05;10.70;;;4.32;;
3257;SDS011;1641;51.306;12.384;2023-07-09T12:21:35;6.32;;;4.55;;
3257;SDS011;1641;51.306;12.384;2023-07-09T12:24:18;5.35;;;4.18;;
3257;SDS011;1641;51.306;12.384;2023-07-09T12:26:47;9.18;;;5.10;;
3257;SDS011;1641;51.306;12.384;2023-07-09T12:29:17;5.10;;;4.32;;
3257;SDS011;1641;51.306;12.384;2023-07-09T12:31:45;5.90;;;4.10;;
3257;SDS011;1641;51.306;12.384;2023-07-09T12:34:14;4.82;;;4.32;;
3257;SDS011;1641;51.306;12.384;2023-07-09T12:36:41;7.32;;;4.72;;
3257;SDS011;1641;51.306;12.384;2023-07-09T12:39:13;5.75;;;3.92;;
3257;SDS011;1641;51.306;12.384;2023-07-09T12:44:20;5.80;;;4.15;;
3257;SDS011;1641;51.306;12.384;2023-07-09T12:46:46;6.13;;;4.20;;
3257;SDS011;1641;51.306;12.384;2023-07-09T12:52:23;5.95;;;4.07;;
3257;SDS011;1641;51.306;12.384;2023-07-09T13:04:31;7.57;;;4.25;;
3257;SDS011;1641;51.306;12.384;2023-07-09T13:12:53;11.73;;;4.30;;
3257;SDS011;1641;51.306;12.384;2023-07-09T13:15:30;6.82;;;4.40;;
3257;SDS011;1641;51.306;12.384;2023-07-09T13:18:07;6.03;;;4.50;;
3257;SDS011;1641;51.306;12.384;2023-07-09T13:20:38;5.05;;;4.13;;
3257;SDS011;1641;51.306;12.384;2023-07-09T13:23:11;9.85;;;4.38;;
3257;SDS011;1641;51.306;12.384;2023-07-09T13:25:50;5.30;;;4.32;;
3257;SDS011;1641;51.306;12.384;2023-07-09T13:28:23;7.13;;;5.00;;
3257;SDS011;1641;51.306;12.384;2023-07-09T13:30:59;8.18;;;4.60;;
3257;SDS011;1641;51.306;12.384;2023-07-09T13:33:36;5.13;;;4.00;;
3257;SDS011;1641;51.306;12.384;2023-07-09T13:36:04;5.32;;;4.43;;
3257;SDS011;1641;51.306;12.384;2023-07-09T13:38:32;11.40;;;5.13;;
3257;SDS011;1641;51.306;12.384;2023-07-09T13:41:09;8.43;;;4.07;;
3257;SDS011;1641;51.306;12.384;2023-07-09T13:43:41;6.32;;;4.50;;
3257;SDS011;1641;51.306;12.384;2023-07-09T13:46:10;4.40;;;3.95;;
3257;SDS011;1641;51.306;12.384;2023-07-09T13:48:37;4.13;;;3.53;;
3257;SDS011;1641;51.306;12.384;2023-07-09T13:51:13;6.65;;;4.15;;
3257;SDS011;1641;51.306;12.384;2023-07-09T13:53:43;9.98;;;4.05;;
3257;SDS011;1641;51.306;12.384;2023-07-09T13:56:10;4.38;;;3.70;;
3257;SDS011;1641;51.306;12.384;2023-07-09T13:58:35;5.93;;;4.10;;
3257;SDS011;1641;51.306;12.384;2023-07-09T14:01:08;5.30;;;4.07;;
3257;SDS011;1641;51.306;12.384;2023-07-09T14:03:36;7.88;;;4.55;;
3257;SDS011;1641;51.306;12.384;2023-07-09T14:06:01;4.40;;;4.00;;
3257;SDS011;1641;51.306;12.384;2023-07-09T14:08:27;7.30;;;4.35;;
3257;SDS011;1641;51.306;12.384;2023-07-09T14:10:52;6.25;;;4.07;;
3257;SDS011;1641;51.306;12.384;2023-07-09T14:13:20;4.63;;;3.73;;
3257;SDS011;1641;51.306;12.384;2023-07-09T14:15:48;5.23;;;4.23;;
3257;SDS011;1641;51.306;12.384;2023-07-09T14:18:14;7.32;;;4.18;;
3257;SDS011;1641;51.306;12.384;2023-07-09T14:20:42;5.35;;;3.97;;
3257;SDS011;1641;51.306;12.384;2023-07-09T14:23:10;7.38;;;4.25;;
3257;SDS011;1641;51.306;12.384;2023-07-09T14:25:36;8.18;;;4.32;;
3257;SDS011;1641;51.306;12.384;2023-07-09T14:28:04;5.93;;;4.80;;
3257;SDS011;1641;51.306;12.384;2023-07-09T14:30:33;8.10;;;4.13;;
3257;SDS011;1641;51.306;12.384;2023-07-09T14:32:59;9.00;;;4.32;;
3257;SDS011;1641;51.306;12.384;2023-07-09T14:35:25;5.45;;;3.90;;
3257;SDS011;1641;51.306;12.384;2023-07-09T14:37:52;5.68;;;4.28;;
3257;SDS011;1641;51.306;12.384;2023-07-09T14:40:19;7.03;;;4.32;;
3257;SDS011;1641;51.306;12.384;2023-07-09T14:42:46;7.85;;;4.63;;
3257;SDS011;1641;51.306;12.384;2023-07-09T14:45:16;7.47;;;4.32;;
3257;SDS011;1641;51.306;12.384;2023-07-09T14:47:44;6.43;;;5.00;;
3257;SDS011;1641;51.306;12.384;2023-07-09T14:50:10;4.35;;;3.88;;
3257;SDS011;1641;51.306;12.384;2023-07-09T14:52:35;4.90;;;4.25;;
3257;SDS011;1641;51.306;12.384;2023-07-09T14:55:01;6.13;;;4.70;;
3257;SDS011;1641;51.306;12.384;2023-07-09T14:57:27;5.03;;;3.95;;
3257;SDS011;1641;51.306;12.384;2023-07-09T14:59:55;6.95;;;4.28;;
3257;SDS011;1641;51.306;12.384;2023-07-09T15:02:29;5.68;;;4.97;;
3257;SDS011;1641;51.306;12.384;2023-07-09T15:05:00;7.85;;;4.25;;
3257;SDS011;1641;51.306;12.384;2023-07-09T15:07:26;5.95;;;4.18;;
3257;SDS011;1641;51.306;12.384;2023-07-09T15:09:55;8.35;;;4.70;;
3257;SDS011;1641;51.306;12.384;2023-07-09T15:12:25;6.60;;;4.25;;
3257;SDS011;1641;51.306;12.384;2023-07-09T15:14:54;12.10;;;4.80;;
3257;SDS011;1641;51.306;12.384;2023-07-09T15:17:25;6.60;;;3.72;;
3257;SDS011;1641;51.306;12.384;2023-07-09T15:19:51;12.70;;;4.18;;
3257;SDS011;1641;51.306;12.384;2023-07-09T15:22:27;6.32;;;4.43;;
3257;SDS011;1641;51.306;12.384;2023-07-09T15:24:56;6.40;;;4.20;;
3257;SDS011;1641;51.306;12.384;2023-07-09T15:27:21;5.75;;;4.25;;
3257;SDS011;1641;51.306;12.384;2023-07-09T15:29:47;6.15;;;4.63;;
3257;SDS011;1641;51.306;12.384;2023-07-09T15:32:12;7.73;;;4.80;;
3257;SDS011;1641;51.306;12.384;2023-07-09T15:34:37;4.90;;;4.35;;
3257;SDS011;1641;51.306;12.384;2023-07-09T15:37:04;4.97;;;3.57;;
3257;SDS011;1641;51.306;12.384;2023-07-09T15:39:37;8.23;;;5.45;;
3257;SDS011;1641;51.306;12.384;2023-07-09T15:42:08;9.35;;;4.00;;
3257;SDS011;1641;51.306;12.384;2023-07-09T15:44:34;7.70;;;4.53;;
3257;SDS011;1641;51.306;12.384;2023-07-09T15:47:00;8.52;;;4.75;;
3257;SDS011;1641;51.306;12.384;2023-07-09T15:49:25;7.78;;;4.38;;
3257;SDS011;1641;51.306;12.384;2023-07-09T15:51:50;4.90;;;3.97;;
3257;SDS011;1641;51.306;12.384;2023-07-09T15:54:19;4.95;;;4.15;;
3257;SDS011;1641;51.306;12.384;2023-07-09T15:56:47;7.30;;;4.60;;
3257;SDS011;1641;51.306;12.384;2023-07-09T16:02:10;11.55;;;6.03;;
3257;SDS011;1641;51.306;12.384;2023-07-09T16:04:37;6.30;;;4.40;;
3257;SDS011;1641;51.306;12.384;2023-07-09T16:07:03;6.75;;;5.15;;